Time;durP1;ratioP1;P1;durP2;ratioP2;P2;SDS_P1;SDS_P2;PMS_P1;PMS_P2;Temp;Humidity;BMP_temperature;BMP_pressure;BME280_temperature;BME280_humidity;BME280_pressure;Samples;Min_cycle;Max_cycle;Signal;HPM_P1;HPM_P2
2023/08/05 00:00:45;;;;;;;4.35;2.15;;;;;;;15.85;100.00;101603.16;4984702;28;20108;-83
2023/08/05 00:03:11;;;;;;;3.58;2.03;;;;;;;15.75;100.00;101581.38;4988016;28;20034;-83
2023/08/05 00:05:39;;;;;;;5.60;2.30;;;;;;;15.76;100.00;101580.16;4987841;28;20022;-83
2023/08/05 00:08:05;;;;;;;5.75;3.47;;;;;;;15.81;100.00;101588.22;4989256;28;20142;-83
2023/08/05 00:10:30;;;;;;;4.90;2.08;;;;;;;15.83;100.00;101589.47;4990334;28;20471;-83
2023/08/05 00:12:56;;;;;;;5.32;2.88;;;;;;;15.64;100.00;101565.16;4988015;28;20026;-83
2023/08/05 00:15:22;;;;;;;4.13;2.60;;;;;;;15.93;100.00;101593.50;4988337;28;20482;-83
2023/08/05 00:17:48;;;;;;;6.13;2.30;;;;;;;15.68;100.00;101570.00;4980814;28;20495;-83
2023/08/05 00:20:13;;;;;;;4.85;2.80;;;;;;;15.76;100.00;101577.31;4988142;28;20063;-83
2023/08/05 00:22:39;;;;;;;5.60;2.65;;;;;;;15.68;100.00;101564.34;4989452;28;20038;-83
2023/08/05 00:25:04;;;;;;;5.82;2.50;;;;;;;15.72;100.00;101562.38;4985615;28;20189;-82
2023/08/05 00:27:30;;;;;;;4.85;2.38;;;;;;;15.57;100.00;101553.00;4989323;28;20144;-83
2023/08/05 00:29:55;;;;;;;5.45;2.47;;;;;;;15.69;100.00;101563.16;4989266;28;20034;-83
2023/08/05 00:32:21;;;;;;;5.95;3.22;;;;;;;15.59;100.00;101557.06;4985027;28;20022;-83
2023/08/05 00:34:46;;;;;;;4.22;2.65;;;;;;;15.67;100.00;101562.75;4982049;28;20031;-83
2023/08/05 00:37:11;;;;;;;4.35;2.28;;;;;;;15.71;100.00;101560.75;4988538;28;20391;-82
2023/08/05 00:39:37;;;;;;;4.85;2.30;;;;;;;15.53;100.00;101547.34;4992797;28;20507;-82
2023/08/05 00:42:02;;;;;;;4.85;2.60;;;;;;;15.56;100.00;101535.28;4984898;28;20034;-83
2023/08/05 00:44:28;;;;;;;5.05;2.85;;;;;;;15.61;100.00;101539.72;4980295;28;20030;-82
2023/08/05 00:46:53;;;;;;;5.82;2.42;;;;;;;15.63;100.00;101549.41;4985423;28;20456;-83
2023/08/05 00:49:20;;;;;;;7.22;3.03;;;;;;;15.62;100.00;101547.81;4981289;28;20030;-83
2023/08/05 00:51:46;;;;;;;4.28;2.30;;;;;;;15.56;100.00;101543.75;4989144;28;20495;-83
2023/08/05 00:54:11;;;;;;;5.57;2.85;;;;;;;15.56;100.00;101546.56;4987475;28;20390;-83
2023/08/05 00:56:37;;;;;;;5.45;2.95;;;;;;;15.50;100.00;101530.44;4984826;28;20037;-83
2023/08/05 00:59:02;;;;;;;5.50;2.97;;;;;;;15.55;100.00;101541.31;4982378;28;20026;-83
2023/08/05 01:01:28;;;;;;;3.10;2.10;;;;;;;15.62;100.00;101550.63;4995171;28;20030;-83
2023/08/05 01:03:53;;;;;;;6.30;2.75;;;;;;;15.58;100.00;101555.44;4978995;28;20022;-83
2023/08/05 01:06:20;;;;;;;4.40;2.42;;;;;;;15.55;100.00;101544.94;4984961;28;20627;-83
2023/08/05 01:08:47;;;;;;;11.70;3.55;;;;;;;15.60;100.00;101553.03;4988903;28;20142;-83
2023/08/05 01:11:13;;;;;;;7.57;2.72;;;;;;;15.58;100.00;101555.44;4981184;28;20038;-83
2023/08/05 01:13:42;;;;;;;6.20;2.58;;;;;;;15.55;100.00;101556.22;4984477;28;20046;-83
2023/08/05 01:16:07;;;;;;;3.50;2.53;;;;;;;15.52;100.00;101545.75;4980607;28;20050;-82
2023/08/05 01:18:35;;;;;;;4.47;2.67;;;;;;;15.60;100.00;101538.94;4980597;28;20061;-83
2023/08/05 01:21:02;;;;;;;5.60;2.95;;;;;;;15.56;100.00;101542.94;4996940;28;20447;-82
2023/08/05 01:23:40;;;;;;;5.72;3.17;;;;;;;15.51;100.00;101538.47;4977829;28;20093;-83
2023/08/05 01:26:08;;;;;;;4.88;2.40;;;;;;;15.42;100.00;101521.09;4987902;28;20117;-83
2023/08/05 01:28:34;;;;;;;8.85;2.50;;;;;;;15.49;100.00;101523.94;4986227;28;20035;-83
2023/08/05 01:31:00;;;;;;;3.92;2.65;;;;;;;15.41;100.00;101514.66;4985974;28;20034;-82
2023/08/05 01:33:27;;;;;;;6.18;2.50;;;;;;;15.52;100.00;101531.63;5000369;28;20026;-83
2023/08/05 01:35:52;;;;;;;7.43;2.92;;;;;;;15.47;100.00;101532.00;4983194;28;20501;-82
2023/08/05 01:38:18;;;;;;;5.47;2.58;;;;;;;15.51;100.00;101520.75;4981977;28;20030;-83
2023/08/05 01:40:44;;;;;;;4.18;2.78;;;;;;;15.42;100.00;101501.34;4982543;28;20045;-82
2023/08/05 01:43:10;;;;;;;3.92;2.58;;;;;;;15.54;100.00;101501.00;4978963;28;20089;-82
2023/08/05 01:45:35;;;;;;;5.75;3.15;;;;;;;15.47;100.00;101494.53;4977947;28;20038;-82
2023/08/05 01:48:01;;;;;;;4.60;2.80;;;;;;;15.37;100.00;101490.47;4975354;28;20030;-82
2023/08/05 01:50:26;;;;;;;6.15;2.80;;;;;;;15.34;100.00;101496.88;4984842;28;20190;-82
2023/08/05 01:52:53;;;;;;;5.28;2.97;;;;;;;15.46;100.00;101505.00;4970117;28;20026;-82
2023/08/05 01:55:19;;;;;;;5.32;3.95;;;;;;;15.43;100.00;101497.31;4971054;28;20022;-82
2023/08/05 01:57:44;;;;;;;5.00;2.83;;;;;;;15.49;100.00;101504.19;4984599;28;20026;-82
2023/08/05 02:00:10;;;;;;;6.25;3.40;;;;;;;15.45;100.00;101501.38;4971984;28;20060;-82
2023/08/05 02:02:35;;;;;;;7.05;3.28;;;;;;;15.44;100.00;101507.41;4982333;28;20510;-82
2023/08/05 02:05:01;;;;;;;5.43;2.92;;;;;;;15.48;100.00;101511.06;4982331;28;20050;-82
2023/08/05 02:07:26;;;;;;;5.35;2.95;;;;;;;15.42;100.00;101501.34;4987955;28;20562;-82
2023/08/05 02:09:52;;;;;;;6.15;2.80;;;;;;;15.52;100.00;101505.44;4985336;28;20033;-82
2023/08/05 02:12:17;;;;;;;4.07;3.00;;;;;;;15.49;100.00;101504.19;4984089;28;20062;-83
2023/08/05 02:14:42;;;;;;;5.50;2.78;;;;;;;15.45;100.00;101504.22;4979852;28;20048;-82
2023/08/05 02:17:08;;;;;;;3.72;3.10;;;;;;;15.46;100.00;101507.84;4977415;28;20085;-83
2023/08/05 02:19:33;;;;;;;4.53;2.88;;;;;;;15.45;100.00;101514.66;4989466;28;20025;-82
2023/08/05 02:21:59;;;;;;;6.38;3.03;;;;;;;15.42;100.00;101509.81;4983547;28;20033;-82
2023/08/05 02:24:24;;;;;;;6.90;3.60;;;;;;;15.52;100.00;101511.88;4986291;28;20034;-82
2023/08/05 02:26:50;;;;;;;4.05;3.15;;;;;;;15.50;100.00;101525.59;4983024;28;20034;-82
2023/08/05 02:29:15;;;;;;;7.20;2.85;;;;;;;15.48;100.00;101511.06;4974419;28;20031;-82
2023/08/05 02:31:40;;;;;;;4.95;3.28;;;;;;;15.45;100.00;101512.66;4983770;28;20025;-82
2023/08/05 02:34:06;;;;;;;8.75;3.33;;;;;;;15.45;100.00;101509.03;4981110;28;20619;-83
2023/08/05 02:36:31;;;;;;;8.05;2.88;;;;;;;15.51;100.00;101507.44;4974110;28;20372;-82
2023/08/05 02:38:57;;;;;;;5.40;2.80;;;;;;;15.52;100.00;101497.78;4995204;28;20479;-82
2023/08/05 02:41:22;;;;;;;4.75;3.22;;;;;;;15.43;100.00;101497.31;4984637;28;20065;-83
2023/08/05 02:43:47;;;;;;;5.03;2.63;;;;;;;15.42;100.00;101490.06;4985545;28;20070;-82
2023/08/05 02:46:13;;;;;;;4.30;2.40;;;;;;;15.51;100.00;101487.69;4986112;28;20463;-82
2023/08/05 02:48:38;;;;;;;4.20;2.95;;;;;;;15.49;100.00;101495.75;5001708;28;20370;-82
2023/08/05 02:51:04;;;;;;;5.43;2.72;;;;;;;15.56;100.00;101489.34;4985031;28;20095;-82
2023/08/05 02:53:29;;;;;;;6.50;2.78;;;;;;;15.47;100.00;101495.31;4978385;28;20503;-83
2023/08/05 02:55:55;;;;;;;4.70;2.72;;;;;;;15.43;100.00;101498.16;4976817;28;20079;-82
2023/08/05 02:58:20;;;;;;;4.93;2.63;;;;;;;15.47;100.00;101498.16;4977780;28;20018;-82
2023/08/05 03:00:49;;;;;;;4.50;2.50;;;;;;;15.39;100.00;101473.94;4986767;28;20023;-82
2023/08/05 03:03:15;;;;;;;6.50;2.78;;;;;;;15.52;100.00;101494.97;4981931;28;20510;-83
2023/08/05 03:05:41;;;;;;;4.20;2.15;;;;;;;15.51;100.00;101479.22;4984912;28;20489;-83
2023/08/05 03:08:07;;;;;;;4.00;2.55;;;;;;;15.52;100.00;101483.69;4984868;28;20101;-82
2023/08/05 03:10:32;;;;;;;6.55;3.83;;;;;;;15.38;100.00;101467.50;4994035;28;20048;-83
2023/08/05 03:12:57;;;;;;;7.03;2.90;;;;;;;15.59;100.00;101486.50;4975339;28;20018;-82
2023/08/05 03:15:27;;;;;;;5.32;2.70;;;;;;;15.59;100.00;101477.25;4982177;28;20092;-83
2023/08/05 03:17:52;;;;;;;5.18;2.70;;;;;;;15.57;100.00;101474.81;4976869;28;20041;-83
2023/08/05 03:20:27;;;;;;;6.20;3.22;;;;;;;15.55;100.00;101480.03;4972892;28;20022;-83
2023/08/05 03:22:53;;;;;;;4.57;2.53;;;;;;;15.53;100.00;101476.81;4988673;28;20027;-83
2023/08/05 03:25:21;;;;;;;4.90;2.72;;;;;;;15.50;100.00;101457.06;4979878;28;20030;-82
2023/08/05 03:27:49;;;;;;;5.35;2.60;;;;;;;15.57;100.00;101469.16;4974485;28;20034;-82
2023/08/05 03:30:15;;;;;;;3.92;2.58;;;;;;;15.50;100.00;101445.78;4982377;28;20038;-82
2023/08/05 03:32:41;;;;;;;5.30;2.97;;;;;;;15.61;100.00;101467.16;4988450;28;20672;-82
2023/08/05 03:35:07;;;;;;;6.45;2.60;;;;;;;15.62;100.00;101468.78;4989109;28;20033;-82
2023/08/05 03:37:32;;;;;;;9.15;3.13;;;;;;;15.61;100.00;101457.91;4983156;28;20026;-82
2023/08/05 03:39:58;;;;;;;5.72;3.08;;;;;;;15.49;100.00;101444.97;4990015;28;20089;-82
2023/08/05 03:42:23;;;;;;;4.85;2.85;;;;;;;15.55;100.00;101454.66;4977272;28;20034;-82
2023/08/05 03:44:49;;;;;;;5.15;2.63;;;;;;;15.55;100.00;101454.66;4982057;28;20030;-82
2023/08/05 03:47:15;;;;;;;5.97;2.97;;;;;;;15.56;100.00;101447.00;4982525;28;20037;-82
2023/08/05 03:49:41;;;;;;;4.78;2.70;;;;;;;15.54;100.00;101444.59;4978916;28;20035;-82
2023/08/05 03:52:06;;;;;;;7.25;3.47;;;;;;;15.61;100.00;101432.50;4981040;28;20061;-82
2023/08/05 03:54:32;;;;;;;5.68;3.95;;;;;;;15.58;100.00;101431.28;4980731;28;20032;-82
2023/08/05 03:56:59;;;;;;;6.18;3.17;;;;;;;15.57;100.00;101418.38;4984332;28;20034;-82
2023/08/05 03:59:25;;;;;;;4.63;2.70;;;;;;;15.66;100.00;101420.81;4972075;28;20054;-82
2023/08/05 04:01:50;;;;;;;7.32;3.22;;;;;;;15.67;100.00;101421.66;4982172;28;20073;-82
2023/08/05 04:04:16;;;;;;;6.18;3.13;;;;;;;15.65;100.00;101411.53;4994912;28;20037;-82
2023/08/05 04:06:41;;;;;;;7.65;2.97;;;;;;;15.47;100.00;101393.75;4997633;28;20084;-82
2023/08/05 04:09:06;;;;;;;5.45;3.40;;;;;;;15.42;100.00;101394.16;4986480;28;20683;-82
2023/08/05 04:11:37;;;;;;;8.70;2.92;;;;;;;15.53;100.00;101394.19;4985987;28;20034;-82
2023/08/05 04:14:03;;;;;;;10.00;3.67;;;;;;;15.54;100.00;101395.81;4979657;28;20100;-82
2023/08/05 04:16:29;;;;;;;7.03;3.20;;;;;;;15.41;100.00;101376.44;4974144;28;20030;-82
2023/08/05 04:18:55;;;;;;;10.05;4.28;;;;;;;15.52;100.00;101399.03;4987652;28;20054;-82
2023/08/05 04:21:28;;;;;;;5.85;2.63;;;;;;;15.59;100.00;101401.84;4980708;28;20109;-82
2023/08/05 04:23:54;;;;;;;5.80;3.75;;;;;;;15.59;100.00;101410.31;4996879;28;20345;-83
2023/08/05 04:26:20;;;;;;;7.95;4.50;;;;;;;15.54;100.00;101405.09;4980365;28;20038;-82
2023/08/05 04:28:46;;;;;;;5.97;3.47;;;;;;;15.60;100.00;101403.50;4976187;28;20042;-82
2023/08/05 04:31:11;;;;;;;5.13;3.70;;;;;;;15.62;100.00;101408.72;4974768;28;20037;-82
2023/08/05 04:33:37;;;;;;;9.30;3.90;;;;;;;15.63;100.00;101404.69;4986595;28;20018;-82
2023/08/05 04:36:02;;;;;;;4.43;3.45;;;;;;;15.55;100.00;101392.56;4972358;28;20072;-82
2023/08/05 04:38:28;;;;;;;9.27;3.65;;;;;;;15.48;100.00;101398.22;4980973;28;20526;-82
2023/08/05 04:40:53;;;;;;;5.82;2.97;;;;;;;15.62;100.00;101389.78;4987152;28;20168;-82
2023/08/05 04:43:19;;;;;;;4.10;2.90;;;;;;;15.55;100.00;101375.66;4977063;28;20030;-82
2023/08/05 04:45:44;;;;;;;5.63;3.35;;;;;;;15.50;100.00;101373.22;4978070;28;20030;-83
2023/08/05 04:48:10;;;;;;;7.47;4.03;;;;;;;15.51;100.00;101377.66;4981055;28;20134;-82
2023/08/05 04:50:37;;;;;;;9.18;3.78;;;;;;;15.37;100.00;101378.44;4980747;28;20063;-82
2023/08/05 04:53:04;;;;;;;6.68;3.40;;;;;;;15.30;100.00;101371.97;4984088;28;20030;-82
2023/08/05 04:55:30;;;;;;;6.20;3.22;;;;;;;15.47;100.00;101381.69;4984627;28;20033;-82
2023/08/05 04:57:55;;;;;;;10.25;3.30;;;;;;;15.46;100.00;101375.25;4988350;28;20427;-82
2023/08/05 05:00:20;;;;;;;7.28;3.55;;;;;;;15.41;100.00;101367.97;4986634;28;20113;-82
2023/08/05 05:02:47;;;;;;;5.72;3.95;;;;;;;15.44;100.00;101363.53;4988523;28;20121;-84
2023/08/05 05:05:13;;;;;;;8.15;4.20;;;;;;;15.34;100.00;101365.13;4990502;28;20034;-84
2023/08/05 05:07:39;;;;;;;9.43;3.40;;;;;;;15.37;100.00;101353.06;4984484;28;20039;-84
2023/08/05 05:10:05;;;;;;;8.25;3.80;;;;;;;15.30;100.00;101363.50;4979779;28;20505;-83
2023/08/05 05:12:30;;;;;;;6.55;3.45;;;;;;;15.33;100.00;101363.53;4985706;28;20644;-84
2023/08/05 05:14:56;;;;;;;7.55;3.72;;;;;;;15.43;100.00;101370.38;4980592;28;20045;-84
2023/08/05 05:17:21;;;;;;;6.25;3.10;;;;;;;15.34;100.00;101356.66;4986643;28;20566;-84
2023/08/05 05:19:47;;;;;;;8.77;4.20;;;;;;;15.36;100.00;101357.06;4983787;28;20041;-83
2023/08/05 05:22:17;;;;;;;6.00;3.20;;;;;;;15.49;100.00;101360.31;4987777;28;20026;-84
2023/08/05 05:24:44;;;;;;;8.30;3.60;;;;;;;15.40;100.00;101365.56;4975103;28;20193;-84
2023/08/05 05:27:13;;;;;;;8.27;3.38;;;;;;;15.44;100.00;101358.69;4978583;28;20394;-84
2023/08/05 05:29:39;;;;;;;6.95;3.45;;;;;;;15.49;100.00;101362.34;4976348;28;20019;-84
2023/08/05 05:32:05;;;;;;;7.13;3.22;;;;;;;15.48;100.00;101358.72;4987477;28;20022;-84
2023/08/05 05:34:30;;;;;;;5.32;3.60;;;;;;;15.47;100.00;101357.09;4984833;28;20019;-84
2023/08/05 05:36:55;;;;;;;8.75;3.80;;;;;;;15.42;100.00;101349.03;4983255;28;20655;-83
2023/08/05 05:39:21;;;;;;;7.07;4.43;;;;;;;15.41;100.00;101341.75;4989018;28;20117;-83
2023/08/05 05:41:46;;;;;;;5.68;3.53;;;;;;;15.68;100.00;101345.03;4980069;28;20042;-84
2023/08/05 05:44:12;;;;;;;5.88;3.50;;;;;;;15.65;100.00;101345.84;4974304;28;20027;-83
2023/08/05 05:46:37;;;;;;;9.10;4.15;;;;;;;15.61;100.00;101343.00;4978494;28;20057;-83
2023/08/05 05:49:03;;;;;;;5.30;2.95;;;;;;;15.60;100.00;101347.06;4974782;28;20030;-83
2023/08/05 05:51:28;;;;;;;5.55;3.15;;;;;;;15.62;100.00;101347.47;4978186;28;20018;-84
2023/08/05 05:53:55;;;;;;;5.68;3.25;;;;;;;15.74;100.00;101342.66;4982179;28;20106;-83
2023/08/05 05:56:21;;;;;;;6.70;3.42;;;;;;;15.47;100.00;101317.59;4993440;28;20026;-83
2023/08/05 05:58:46;;;;;;;6.53;3.85;;;;;;;15.64;100.00;101335.75;4990010;28;20045;-83
2023/08/05 06:01:13;;;;;;;7.78;3.22;;;;;;;15.68;100.00;101335.75;4992561;28;20460;-83
2023/08/05 06:03:39;;;;;;;6.35;3.80;;;;;;;15.68;100.00;101338.59;4978371;28;20060;-83
2023/08/05 06:06:04;;;;;;;5.43;3.13;;;;;;;15.63;100.00;101326.47;4979816;28;20032;-83
2023/08/05 06:08:30;;;;;;;6.93;3.25;;;;;;;15.60;100.00;101318.84;4978024;28;20022;-83
2023/08/05 06:10:56;;;;;;;7.35;3.25;;;;;;;15.61;100.00;101333.75;4990034;28;20041;-83
2023/08/05 06:13:22;;;;;;;4.95;2.70;;;;;;;15.64;100.00;101335.75;4995218;28;20069;-83
2023/08/05 06:15:47;;;;;;;6.10;3.05;;;;;;;15.58;100.00;101334.53;4987564;28;20478;-83
2023/08/05 06:18:13;;;;;;;5.25;2.60;;;;;;;15.42;100.00;101340.56;4985332;28;20036;-83
2023/08/05 06:20:38;;;;;;;5.88;2.67;;;;;;;15.48;100.00;101324.88;4987261;28;20475;-83
2023/08/05 06:23:06;;;;;;;5.72;2.70;;;;;;;15.53;100.00;101332.13;4988340;28;20058;-83
2023/08/05 06:25:31;;;;;;;5.60;3.40;;;;;;;15.51;100.00;101334.53;4980099;28;20065;-83
2023/08/05 06:27:57;;;;;;;6.43;3.25;;;;;;;15.51;100.00;101334.53;4980203;28;20803;-84
2023/08/05 06:30:22;;;;;;;5.63;3.17;;;;;;;15.67;100.00;101334.97;4979263;28;20054;-83
2023/08/05 06:32:51;;;;;;;6.18;3.55;;;;;;;15.70;100.00;101327.69;4989591;28;20125;-83
2023/08/05 06:35:16;;;;;;;6.10;3.40;;;;;;;15.80;100.00;101335.41;4981342;28;20049;-83
2023/08/05 06:37:41;;;;;;;5.60;3.58;;;;;;;15.80;100.00;101338.22;4981695;28;20026;-83
2023/08/05 06:40:07;;;;;;;5.78;3.63;;;;;;;15.80;100.00;101333.38;4979675;28;20077;-83
2023/08/05 06:42:33;;;;;;;5.93;4.32;;;;;;;15.82;100.00;101321.69;4981050;28;20031;-83
2023/08/05 06:44:58;;;;;;;8.60;3.55;;;;;;;15.70;100.00;101305.91;4984775;28;20081;-84
2023/08/05 06:47:30;;;;;;;5.55;3.58;;;;;;;15.89;100.00;101332.16;4988266;28;20117;-83
2023/08/05 06:49:56;;;;;;;3.92;3.00;;;;;;;15.99;100.00;101342.66;4984664;28;20062;-84
2023/08/05 06:52:22;;;;;;;7.88;3.35;;;;;;;15.98;100.00;101329.72;4987022;28;20510;-83
2023/08/05 06:54:47;;;;;;;9.73;3.70;;;;;;;15.93;100.00;101345.06;4991620;28;20084;-84
2023/08/05 06:57:13;;;;;;;8.27;4.47;;;;;;;15.91;100.00;101327.72;4988011;28;20088;-84
2023/08/05 06:59:38;;;;;;;6.70;3.47;;;;;;;15.95;100.00;101325.72;4986244;28;20478;-84
2023/08/05 07:02:04;;;;;;;5.57;3.15;;;;;;;16.05;100.00;101327.72;4985189;28;20364;-83
2023/08/05 07:04:30;;;;;;;6.40;3.40;;;;;;;15.96;100.00;101316.03;4996606;28;20501;-84
2023/08/05 07:06:56;;;;;;;6.45;3.70;;;;;;;15.95;100.00;101314.41;4988727;28;20027;-84
2023/08/05 07:09:21;;;;;;;7.28;3.85;;;;;;;15.96;100.00;101321.69;4988064;28;20056;-84
2023/08/05 07:11:47;;;;;;;6.55;4.95;;;;;;;15.89;100.00;101304.75;4989954;28;20034;-84
2023/08/05 07:14:12;;;;;;;9.27;3.90;;;;;;;16.05;100.00;101322.06;4987767;28;20525;-84
2023/08/05 07:16:37;;;;;;;5.32;3.70;;;;;;;16.07;100.00;101313.19;4985878;28;20325;-83
2023/08/05 07:19:03;;;;;;;9.32;3.78;;;;;;;16.21;100.00;101313.19;4987590;28;20022;-83
2023/08/05 07:21:28;;;;;;;6.32;3.35;;;;;;;16.31;100.00;101314.34;4987833;28;20026;-84
2023/08/05 07:23:54;;;;;;;8.32;5.70;;;;;;;16.22;100.00;101313.97;4980342;28;20026;-84
2023/08/05 07:26:19;;;;;;;6.85;3.35;;;;;;;16.31;100.00;101311.53;4986223;28;20545;-84
2023/08/05 07:28:45;;;;;;;5.82;3.67;;;;;;;16.45;100.00;101302.22;4984194;28;20426;-84
2023/08/05 07:31:10;;;;;;;7.15;3.78;;;;;;;16.59;100.00;101302.19;4986107;28;20093;-84
2023/08/05 07:33:41;;;;;;;6.47;3.85;;;;;;;16.85;100.00;101303.72;4983849;28;20073;-84
2023/08/05 07:36:08;;;;;;;5.15;3.22;;;;;;;16.98;100.00;101308.91;4987030;28;20073;-83
2023/08/05 07:38:35;;;;;;;9.73;4.03;;;;;;;16.98;100.00;101300.41;4984103;28;20109;-84
2023/08/05 07:41:01;;;;;;;6.57;4.28;;;;;;;16.99;100.00;101304.84;4983702;28;20042;-84
2023/08/05 07:43:29;;;;;;;10.95;3.67;;;;;;;16.95;100.00;101312.53;4987535;28;20034;-84
2023/08/05 07:45:59;;;;;;;6.65;3.22;;;;;;;16.79;100.00;101294.00;4979080;28;20057;-84
2023/08/05 07:48:27;;;;;;;9.35;4.22;;;;;;;16.90;100.00;101304.50;4978913;28;20069;-84
2023/08/05 07:50:52;;;;;;;8.32;3.42;;;;;;;16.88;100.00;101282.28;4978020;28;20037;-84
2023/08/05 07:53:20;;;;;;;6.20;3.65;;;;;;;16.99;100.00;101283.06;4983369;28;20031;-84
2023/08/05 07:55:46;;;;;;;6.72;3.60;;;;;;;16.98;100.00;101266.50;4982494;28;20038;-84
2023/08/05 07:58:12;;;;;;;4.95;3.08;;;;;;;17.20;100.00;101282.13;4981484;28;20026;-84
2023/08/05 08:00:39;;;;;;;9.18;2.88;;;;;;;17.17;100.00;101263.13;4984325;28;20034;-84
2023/08/05 08:03:05;;;;;;;6.80;3.30;;;;;;;17.30;100.00;101254.97;4985676;28;20479;-84
2023/08/05 08:05:31;;;;;;;5.70;3.20;;;;;;;17.41;100.00;101249.22;4987642;28;20104;-84
2023/08/05 08:08:00;;;;;;;7.88;2.67;;;;;;;17.61;100.00;101269.28;4982185;28;20027;-84
2023/08/05 08:10:25;;;;;;;6.25;3.95;;;;;;;17.33;100.00;101253.31;4987921;28;20031;-84
2023/08/05 08:12:52;;;;;;;7.57;3.08;;;;;;;17.25;100.00;101246.91;4996395;28;20026;-84
2023/08/05 08:15:17;;;;;;;7.30;3.15;;;;;;;17.59;100.00;101243.41;4960999;28;20050;-84
2023/08/05 08:17:43;;;;;;;7.10;3.33;;;;;;;17.75;100.00;101246.50;4966731;28;20421;-84
2023/08/05 08:20:09;;;;;;;3.45;2.65;;;;;;;17.86;100.00;101247.22;4965536;28;20023;-84
2023/08/05 08:22:34;;;;;;;5.63;3.80;;;;;;;17.98;100.00;101230.91;4963099;28;20058;-84
2023/08/05 08:25:00;;;;;;;5.43;3.35;;;;;;;18.05;100.00;101230.88;4964761;28;20030;-84
2023/08/05 08:27:25;;;;;;;11.77;4.32;;;;;;;18.17;100.00;101232.34;4963043;28;20026;-84
2023/08/05 08:29:51;;;;;;;8.25;3.55;;;;;;;18.15;100.00;101206.47;4971765;28;20506;-84
2023/08/05 08:32:17;;;;;;;6.53;3.55;;;;;;;18.42;100.00;101227.16;4989650;28;20031;-84
2023/08/05 08:34:42;;;;;;;6.85;3.70;;;;;;;18.47;100.00;101229.56;4969740;28;20081;-84
2023/08/05 08:37:07;;;;;;;8.05;3.85;;;;;;;18.08;100.00;101208.16;4971351;28;20035;-84
2023/08/05 08:39:33;;;;;;;5.97;3.35;;;;;;;18.18;100.00;101222.63;4971110;28;20100;-84
2023/08/05 08:41:59;;;;;;;9.18;4.47;;;;;;;18.20;100.00;101217.34;4970931;28;20239;-84
2023/08/05 08:44:26;;;;;;;5.30;3.78;;;;;;;18.13;100.00;101221.06;4966429;28;20030;-84
2023/08/05 08:46:52;;;;;;;9.98;3.92;;;;;;;18.14;100.00;101221.88;4970570;28;20035;-84
2023/08/05 08:49:19;;;;;;;6.60;4.45;;;;;;;18.11;100.00;101217.03;4970815;28;20034;-84
2023/08/05 08:51:46;;;;;;;7.40;3.67;;;;;;;18.07;100.00;101212.22;4970730;28;20495;-84
2023/08/05 08:54:14;;;;;;;6.32;4.35;;;;;;;18.10;100.00;101209.75;4970706;28;20038;-84
2023/08/05 08:56:40;;;;;;;8.95;4.72;;;;;;;18.19;100.00;101193.84;4973908;28;20027;-84
2023/08/05 08:59:06;;;;;;;7.30;4.30;;;;;;;18.37;100.00;101184.34;4970806;28;20031;-84
2023/08/05 09:01:34;;;;;;;10.23;4.97;;;;;;;18.45;100.00;101183.03;4968052;28;20110;-84
2023/08/05 09:04:00;;;;;;;10.68;5.45;;;;;;;18.54;100.00;101180.47;4972634;28;20479;-84
2023/08/05 09:06:26;;;;;;;8.27;4.78;;;;;;;18.49;100.00;101167.56;4970260;28;20031;-85
2023/08/05 09:08:52;;;;;;;9.32;4.68;;;;;;;18.66;100.00;101179.09;4963671;28;20039;-85
2023/08/05 09:11:17;;;;;;;8.52;5.47;;;;;;;19.06;100.00;101163.13;4967646;28;20452;-85
2023/08/05 09:13:43;;;;;;;9.40;4.40;;;;;;;19.06;100.00;101174.47;4976961;28;20070;-85
2023/08/05 09:16:14;;;;;;;7.47;4.88;;;;;;;19.01;100.00;101165.63;4989055;28;20034;-85
2023/08/05 09:18:44;;;;;;;6.95;4.65;;;;;;;19.16;100.00;101161.31;4980784;28;20030;-85
2023/08/05 09:21:10;;;;;;;7.07;4.68;;;;;;;19.32;100.00;101154.97;4990814;28;20125;-85
2023/08/05 09:23:45;;;;;;;6.53;3.92;;;;;;;19.70;100.00;101154.72;4986698;28;20023;-84
2023/08/05 09:26:11;;;;;;;8.18;4.70;;;;;;;19.67;100.00;101159.22;4988612;28;20030;-85
2023/08/05 09:28:38;;;;;;;7.38;4.22;;;;;;;19.84;100.00;101159.34;4989884;28;20026;-84
2023/08/05 09:31:16;;;;;;;5.20;4.05;;;;;;;19.89;100.00;101145.41;4988807;28;20062;-85
2023/08/05 09:33:43;;;;;;;5.53;3.92;;;;;;;19.82;100.00;101150.47;4993207;28;20062;-85
2023/08/05 09:36:14;;;;;;;6.45;4.20;;;;;;;20.03;97.49;101138.66;4986778;28;20062;-85
2023/08/05 09:38:40;;;;;;;5.53;3.63;;;;;;;19.93;97.18;101138.88;4988027;28;20109;-84
2023/08/05 09:41:09;;;;;;;5.95;3.75;;;;;;;20.17;96.02;101145.28;4988627;28;20113;-85
2023/08/05 09:43:39;;;;;;;5.32;3.90;;;;;;;20.09;97.08;101133.25;4987340;28;20491;-84
2023/08/05 09:46:11;;;;;;;5.43;3.67;;;;;;;19.76;98.06;101135.16;4987558;28;20121;-85
2023/08/05 09:48:43;;;;;;;6.15;3.40;;;;;;;19.85;100.00;101129.69;4986121;28;20022;-84
2023/08/05 09:51:15;;;;;;;6.15;3.83;;;;;;;19.96;98.88;101115.25;4978821;28;20599;-84
2023/08/05 09:53:41;;;;;;;4.15;3.75;;;;;;;20.03;96.23;101132.97;4986363;28;20019;-85
2023/08/05 09:56:09;;;;;;;3.78;2.95;;;;;;;20.61;92.23;101126.06;4992045;28;20034;-84
2023/08/05 09:58:37;;;;;;;3.15;2.70;;;;;;;20.58;89.52;101116.38;4982045;28;20023;-84
2023/08/05 10:01:07;;;;;;;4.68;2.90;;;;;;;20.86;89.94;101114.09;4988017;28;20395;-84
2023/08/05 10:03:35;;;;;;;5.15;2.70;;;;;;;21.17;88.08;101105.19;4981528;28;20019;-84
2023/08/05 10:06:03;;;;;;;7.15;3.20;;;;;;;21.23;94.10;101103.38;4989685;28;20672;-84
2023/08/05 10:08:30;;;;;;;7.35;3.90;;;;;;;20.78;92.04;101087.06;4985083;28;20027;-84
2023/08/05 10:10:56;;;;;;;7.22;4.30;;;;;;;20.80;92.29;101099.59;4988190;28;20166;-85
2023/08/05 10:13:22;;;;;;;6.72;4.60;;;;;;;20.70;90.85;101090.09;4972669;28;20518;-84
2023/08/05 10:15:51;;;;;;;3.72;2.90;;;;;;;20.81;91.07;101084.13;4986058;28;20023;-84
2023/08/05 10:18:17;;;;;;;3.72;2.72;;;;;;;20.61;88.56;101064.28;4980541;28;20030;-84
2023/08/05 10:20:48;;;;;;;4.53;2.65;;;;;;;20.57;89.10;101071.28;4989157;28;20382;-84
2023/08/05 10:23:13;;;;;;;5.53;2.60;;;;;;;20.27;87.68;101073.97;4984798;28;20442;-84
2023/08/05 10:25:46;;;;;;;2.95;2.65;;;;;;;20.76;85.72;101075.31;4988369;28;20030;-84
2023/08/05 10:28:24;;;;;;;2.55;2.35;;;;;;;21.17;85.41;101069.00;4993918;28;20040;-84
2023/08/05 10:30:50;;;;;;;3.33;2.63;;;;;;;20.85;85.14;101045.03;4983636;28;20126;-82
2023/08/05 10:33:17;;;;;;;4.68;2.60;;;;;;;20.65;88.37;101042.25;4988629;28;20023;-83
2023/08/05 10:35:43;;;;;;;3.85;3.10;;;;;;;20.97;85.52;101059.75;4985563;28;20025;-84
2023/08/05 10:38:23;;;;;;;4.45;2.45;;;;;;;21.13;84.10;101048.34;4986080;28;20098;-84
2023/08/05 10:40:55;;;;;;;3.38;2.50;;;;;;;20.91;81.22;101060.31;4986494;28;20538;-84
2023/08/05 10:43:33;;;;;;;3.92;2.55;;;;;;;20.86;82.22;101057.19;4981284;28;20057;-84
2023/08/05 10:46:13;;;;;;;2.53;1.95;;;;;;;21.04;74.70;101046.16;4999948;28;20026;-84
2023/08/05 10:48:44;;;;;;;3.75;2.80;;;;;;;21.06;76.11;101066.44;4990103;28;20026;-83
2023/08/05 10:51:20;;;;;;;4.60;2.67;;;;;;;21.05;76.76;101047.75;4987953;28;20045;-84
2023/08/05 10:53:56;;;;;;;4.05;2.35;;;;;;;21.01;79.47;101047.03;4987619;28;20546;-84
2023/08/05 10:56:34;;;;;;;5.07;2.80;;;;;;;21.07;85.10;101044.44;4988622;28;20391;-84
2023/08/05 10:59:01;;;;;;;2.92;2.67;;;;;;;21.12;80.38;101046.75;4975878;28;20030;-84
2023/08/05 11:01:52;;;;;;;2.78;2.40;;;;;;;21.10;79.49;101043.53;4986116;28;20078;-84
2023/08/05 11:04:33;;;;;;;2.30;2.10;;;;;;;20.90;82.14;101033.09;4992979;28;20403;-84
2023/08/05 11:07:00;;;;;;;4.55;2.40;;;;;;;20.78;84.33;101028.13;4982413;28;20088;-83
2023/08/05 11:09:35;;;;;;;4.68;2.25;;;;;;;21.02;81.02;101019.38;4980998;28;20092;-84
2023/08/05 11:12:00;;;;;;;5.68;2.42;;;;;;;21.33;81.17;101016.91;4982182;28;20479;-83
2023/08/05 11:14:27;;;;;;;2.85;2.42;;;;;;;21.37;81.15;101011.09;4984012;28;20170;-84
2023/08/05 11:17:02;;;;;;;2.67;2.30;;;;;;;21.26;81.47;101003.66;4984925;28;20422;-84